Time;durP1;ratioP1;P1;durP2;ratioP2;P2;SDS_P1;SDS_P2;PMS_P1;PMS_P2;Temp;Humidity;BMP_temperature;BMP_pressure;BME280_temperature;BME280_humidity;BME280_pressure;Samples;Min_cycle;Max_cycle;Signal;HPM_P1;HPM_P2
2021/08/16 00:02:11;;;;;;;24.00;16.35;;;;;;;;;;5012810;28;20204;-94
2021/08/16 00:04:37;;;;;;;23.85;16.90;;;19.20;99.90;;;;;;5012817;28;20181;-95
2021/08/16 00:07:02;;;;;;;24.13;17.48;;;19.20;99.90;;;;;;4996068;28;20181;-94
2021/08/16 00:09:29;;;;;;;21.15;15.50;;;;;;;;;;5012689;28;20219;-94
2021/08/16 00:11:54;;;;;;;20.95;16.33;;;19.20;99.90;;;;;;5012628;28;20247;-93
2021/08/16 00:14:20;;;;;;;25.75;16.42;;;;;;;;;;5015693;28;20181;-95
2021/08/16 00:16:46;;;;;;;21.67;17.10;;;19.10;99.90;;;;;;5017655;28;20649;-94
2021/08/16 00:19:12;;;;;;;32.38;17.75;;;;;;;;;;5016090;28;20185;-94
2021/08/16 00:21:38;;;;;;;26.27;17.25;;;19.10;99.90;;;;;;5016120;28;20216;-95
2021/08/16 00:24:05;;;;;;;21.55;17.15;;;19.10;99.90;;;;;;5016075;28;20181;-94
2021/08/16 00:26:31;;;;;;;24.25;17.23;;;19.10;99.90;;;;;;5017870;28;20617;-94
2021/08/16 00:29:00;;;;;;;24.17;17.25;;;19.10;99.90;;;;;;5016431;28;20184;-94
2021/08/16 00:31:27;;;;;;;28.73;17.88;;;19.10;99.90;;;;;;5016383;28;20185;-93
2021/08/16 00:33:53;;;;;;;25.38;17.50;;;19.10;99.90;;;;;;5015919;28;20183;-93
2021/08/16 00:36:20;;;;;;;21.67;16.92;;;19.10;99.90;;;;;;4999065;28;20177;-94
2021/08/16 00:38:46;;;;;;;24.15;17.63;;;19.10;99.90;;;;;;4999871;28;20181;-94
2021/08/16 00:41:16;;;;;;;25.08;17.63;;;19.10;99.90;;;;;;5015961;28;20212;-93
2021/08/16 00:43:43;;;;;;;25.42;16.63;;;19.10;99.90;;;;;;5016386;28;20177;-95
2021/08/16 00:46:13;;;;;;;26.10;17.48;;;19.00;99.90;;;;;;5015830;28;20209;-95
2021/08/16 00:48:41;;;;;;;28.10;17.92;;;18.70;99.90;;;;;;5000037;28;20276;-95
2021/08/16 00:51:08;;;;;;;27.88;17.67;;;18.80;99.90;;;;;;5015803;28;20181;-95
2021/08/16 00:53:40;;;;;;;27.52;18.63;;;18.90;99.90;;;;;;5016238;28;20177;-94
2021/08/16 00:56:12;;;;;;;27.10;18.75;;;19.20;99.90;;;;;;5016312;28;20204;-95
2021/08/16 00:58:41;;;;;;;26.58;18.45;;;18.90;99.90;;;;;;5016190;28;20188;-95
2021/08/16 01:01:09;;;;;;;30.02;19.38;;;18.90;99.90;;;;;;5015759;28;20212;-95
2021/08/16 01:03:35;;;;;;;26.00;18.63;;;;;;;;;;5015837;28;20273;-95
2021/08/16 01:06:01;;;;;;;27.90;18.33;;;18.90;99.90;;;;;;5015742;28;20188;-93
2021/08/16 01:08:27;;;;;;;25.90;18.88;;;;;;;;;;5015553;28;20174;-94
2021/08/16 01:10:54;;;;;;;22.95;18.13;;;18.80;99.90;;;;;;5014868;28;20241;-94
2021/08/16 01:13:21;;;;;;;26.17;18.60;;;18.80;99.90;;;;;;5014898;28;20173;-95
2021/08/16 01:15:59;;;;;;;26.45;17.98;;;18.80;99.90;;;;;;5015656;28;20598;-95
2021/08/16 01:18:26;;;;;;;25.65;18.13;;;19.20;99.90;;;;;;5015162;28;20180;-94
2021/08/16 01:20:53;;;;;;;27.85;20.27;;;19.00;99.90;;;;;;5015568;28;20201;-94
2021/08/16 01:23:23;;;;;;;26.65;17.83;;;18.80;99.90;;;;;;5015500;28;20235;-95
2021/08/16 01:25:49;;;;;;;26.88;18.90;;;19.00;99.90;;;;;;5015034;28;20207;-95
2021/08/16 01:28:19;;;;;;;25.52;20.02;;;18.80;99.90;;;;;;5014886;28;20196;-94
2021/08/16 01:31:00;;;;;;;29.42;19.40;;;18.70;99.90;;;;;;5014880;28;20181;-94
2021/08/16 01:33:27;;;;;;;27.73;19.38;;;18.70;99.90;;;;;;5015106;28;20189;-94
2021/08/16 01:35:53;;;;;;;30.85;20.17;;;18.70;99.90;;;;;;5016208;28;20180;-94
2021/08/16 01:38:20;;;;;;;29.20;20.25;;;18.70;99.90;;;;;;5015959;28;20173;-94
2021/08/16 01:40:46;;;;;;;32.75;19.73;;;18.70;99.90;;;;;;5014876;28;20219;-94
2021/08/16 01:43:12;;;;;;;24.65;18.98;;;18.80;99.90;;;;;;5014640;28;20517;-95
2021/08/16 01:45:38;;;;;;;28.73;20.17;;;18.70;99.90;;;;;;5014678;28;20180;-94
2021/08/16 01:48:04;;;;;;;25.85;18.88;;;18.00;99.90;;;;;;5015076;28;20181;-94
2021/08/16 01:50:30;;;;;;;27.55;19.08;;;19.20;99.90;;;;;;5014584;28;20220;-94
2021/08/16 01:52:56;;;;;;;29.90;19.17;;;;;;;;;;4998416;28;20177;-94
2021/08/16 01:55:22;;;;;;;29.83;19.60;;;;;;;;;;4997780;28;20188;-93
2021/08/16 01:57:49;;;;;;;28.67;20.05;;;18.60;99.90;;;;;;5014224;28;20189;-93
2021/08/16 02:00:16;;;;;;;29.95;19.35;;;18.30;99.90;;;;;;5015042;28;20177;-93
2021/08/16 02:02:41;;;;;;;29.23;19.73;;;18.60;99.90;;;;;;5013961;28;20732;-93
2021/08/16 02:05:08;;;;;;;32.97;20.23;;;18.60;99.90;;;;;;5013952;28;20185;-94
2021/08/16 02:07:33;;;;;;;26.98;19.52;;;18.60;99.90;;;;;;4997617;28;20181;-94
2021/08/16 02:09:59;;;;;;;34.35;20.25;;;18.80;99.90;;;;;;5018250;28;20242;-94
2021/08/16 02:12:25;;;;;;;25.05;18.80;;;18.50;99.90;;;;;;5001223;28;20259;-94
2021/08/16 02:14:50;;;;;;;25.10;19.13;;;18.50;99.90;;;;;;5000980;28;20184;-94
2021/08/16 02:17:16;;;;;;;25.73;19.35;;;18.60;99.90;;;;;;5034480;28;20696;-92
2021/08/16 02:19:43;;;;;;;32.20;20.23;;;18.50;99.90;;;;;;5017365;28;20600;-93
2021/08/16 02:22:08;;;;;;;26.77;19.13;;;18.50;99.90;;;;;;5016849;28;20239;-93
2021/08/16 02:24:34;;;;;;;27.90;20.00;;;;;;;;;;5017581;28;20279;-94
2021/08/16 02:27:00;;;;;;;25.48;19.15;;;18.50;99.90;;;;;;5034551;28;20208;-93
2021/08/16 02:29:26;;;;;;;27.60;19.58;;;;;;;;;;5016423;28;20664;-94
2021/08/16 02:31:52;;;;;;;25.15;20.23;;;18.40;99.90;;;;;;5035088;28;20172;-94
2021/08/16 02:34:17;;;;;;;26.30;19.75;;;18.50;99.90;;;;;;5017216;28;20275;-94
2021/08/16 02:36:45;;;;;;;26.88;20.90;;;18.40;99.90;;;;;;5000332;28;20177;-94
2021/08/16 02:39:11;;;;;;;29.52;20.77;;;17.90;99.90;;;;;;5017117;28;20183;-94
2021/08/16 02:41:38;;;;;;;28.48;20.20;;;;;;;;;;5034681;28;20201;-95
2021/08/16 02:44:04;;;;;;;30.50;21.30;;;;;;;;;;5017140;28;20188;-95
2021/08/16 02:46:32;;;;;;;27.05;20.52;;;18.30;99.90;;;;;;5034561;28;20226;-93
2021/08/16 02:48:59;;;;;;;26.85;20.58;;;18.30;99.90;;;;;;5034699;28;20179;-94
2021/08/16 02:51:26;;;;;;;26.95;21.58;;;18.30;99.90;;;;;;5016264;28;20183;-92
2021/08/16 02:53:52;;;;;;;29.23;21.88;;;18.30;99.90;;;;;;5033972;28;20170;-91
2021/08/16 02:56:18;;;;;;;30.23;21.85;;;18.60;99.90;;;;;;5033393;28;20204;-92
2021/08/16 02:58:44;;;;;;;31.25;21.55;;;;;;;;;;5033633;28;20207;-93
2021/08/16 03:01:10;;;;;;;31.85;22.75;;;18.40;99.90;;;;;;5033501;28;20231;-92
2021/08/16 03:03:36;;;;;;;28.52;21.40;;;;;;;;;;5015378;28;21186;-93
2021/08/16 03:06:02;;;;;;;30.48;22.83;;;18.40;99.90;;;;;;5033717;28;20242;-92
2021/08/16 03:08:28;;;;;;;28.75;20.70;;;18.80;99.90;;;;;;5015698;28;20187;-91
2021/08/16 03:10:54;;;;;;;32.15;21.52;;;;;;;;;;5033717;28;20677;-91
2021/08/16 03:13:20;;;;;;;33.33;21.02;;;18.30;99.90;;;;;;5033148;28;20176;-91
2021/08/16 03:15:46;;;;;;;28.45;21.85;;;;;;;;;;5016082;28;20185;-91
2021/08/16 03:18:12;;;;;;;30.05;21.23;;;;;;;;;;5033758;28;20168;-93
2021/08/16 03:20:40;;;;;;;29.85;21.55;;;;;;;;;;5033542;28;20219;-93
2021/08/16 03:23:05;;;;;;;29.08;20.92;;;18.30;99.90;;;;;;5037132;28;20185;-90
2021/08/16 03:25:31;;;;;;;30.02;21.80;;;18.30;99.90;;;;;;5048383;28;20272;-93
2021/08/16 03:27:57;;;;;;;27.88;21.88;;;;;;;;;;5048526;28;20193;-92
2021/08/16 03:30:23;;;;;;;32.85;22.88;;;;;;;;;;5004270;28;20195;-92
2021/08/16 03:32:49;;;;;;;30.70;22.75;;;18.30;99.90;;;;;;5002634;28;20184;-93
2021/08/16 03:35:15;;;;;;;31.60;23.50;;;18.30;99.90;;;;;;5000114;28;20181;-93
2021/08/16 03:37:42;;;;;;;31.13;24.77;;;18.30;99.90;;;;;;5015912;28;20177;-93
2021/08/16 03:40:11;;;;;;;33.47;23.80;;;18.30;99.90;;;;;;5015992;28;20181;-92
2021/08/16 03:42:37;;;;;;;34.88;24.80;;;18.40;99.90;;;;;;5015719;28;20216;-93
2021/08/16 03:45:06;;;;;;;30.17;23.08;;;18.60;99.90;;;;;;5033924;28;20177;-92
2021/08/16 03:47:32;;;;;;;34.33;22.95;;;18.50;99.90;;;;;;5017199;28;20708;-92
2021/08/16 03:49:58;;;;;;;31.98;23.15;;;18.60;99.90;;;;;;5038016;28;20208;-94
2021/08/16 03:52:24;;;;;;;36.25;22.80;;;;;;;;;;5003934;28;20644;-91
2021/08/16 03:54:50;;;;;;;33.58;24.10;;;18.60;99.90;;;;;;5037608;28;20172;-91
2021/08/16 03:57:16;;;;;;;30.30;22.10;;;;;;;;;;5037611;28;20172;-92
2021/08/16 03:59:41;;;;;;;29.83;21.70;;;18.70;99.90;;;;;;5019842;28;20184;-93
2021/08/16 04:02:07;;;;;;;27.77;21.13;;;;;;;;;;5019303;28;20214;-91
2021/08/16 04:04:33;;;;;;;28.25;20.45;;;18.70;99.90;;;;;;5036567;28;20259;-91
2021/08/16 04:06:59;;;;;;;37.20;21.70;;;18.70;99.90;;;;;;5037113;28;20271;-91
2021/08/16 04:09:25;;;;;;;30.92;21.23;;;;;;;;;;5002770;28;20271;-89
2021/08/16 04:11:50;;;;;;;30.88;21.38;;;18.80;99.90;;;;;;5003418;28;20240;-93
2021/08/16 04:14:16;;;;;;;28.80;20.23;;;;;;;;;;5003161;28;20185;-93
2021/08/16 04:16:44;;;;;;;25.98;20.92;;;18.80;99.90;;;;;;5002641;28;20188;-91
2021/08/16 04:19:09;;;;;;;34.75;20.70;;;18.90;99.90;;;;;;5002606;28;20184;-90
2021/08/16 04:21:35;;;;;;;28.95;20.92;;;18.90;99.90;;;;;;5002022;28;20204;-91
2021/08/16 04:24:01;;;;;;;29.33;21.05;;;18.90;99.90;;;;;;5018988;28;20206;-92
2021/08/16 04:26:26;;;;;;;24.85;19.88;;;19.00;99.90;;;;;;5018843;28;20263;-89
2021/08/16 04:28:52;;;;;;;24.80;19.65;;;19.00;99.90;;;;;;5003247;28;20314;-93
2021/08/16 04:31:18;;;;;;;28.00;20.30;;;19.00;99.90;;;;;;5034472;28;20671;-91
2021/08/16 04:33:46;;;;;;;27.80;20.75;;;19.10;99.90;;;;;;5014461;28;20185;-92
2021/08/16 04:36:11;;;;;;;30.55;20.15;;;19.10;99.90;;;;;;5016839;28;20210;-92
2021/08/16 04:38:37;;;;;;;24.35;19.50;;;19.10;99.90;;;;;;5034388;28;20649;-91
2021/08/16 04:41:03;;;;;;;30.50;20.23;;;;;;;;;;5034652;28;20563;-92
2021/08/16 04:43:28;;;;;;;26.67;20.65;;;19.10;99.90;;;;;;5016665;28;20198;-91
2021/08/16 04:45:54;;;;;;;32.08;20.83;;;19.20;99.90;;;;;;5016312;28;20177;-92
2021/08/16 04:48:20;;;;;;;29.80;21.30;;;19.30;99.90;;;;;;5016390;28;20653;-92
2021/08/16 04:50:46;;;;;;;27.77;20.50;;;19.30;99.90;;;;;;5016109;28;20185;-92
2021/08/16 04:53:11;;;;;;;26.88;20.55;;;19.50;99.90;;;;;;5033112;28;20231;-91
2021/08/16 04:55:37;;;;;;;27.23;19.90;;;19.50;99.90;;;;;;5016964;28;20184;-93
2021/08/16 04:58:03;;;;;;;27.58;20.67;;;19.60;99.90;;;;;;5034603;28;20230;-92
2021/08/16 05:00:28;;;;;;;26.33;20.70;;;19.60;99.90;;;;;;5015969;28;20193;-92
2021/08/16 05:02:55;;;;;;;30.63;20.52;;;19.70;99.90;;;;;;5032201;28;20243;-91
2021/08/16 05:05:28;;;;;;;29.25;20.75;;;19.80;99.90;;;;;;5033911;28;20644;-91
2021/08/16 05:07:55;;;;;;;26.77;19.60;;;19.80;99.90;;;;;;5013937;28;20180;-92
2021/08/16 05:10:22;;;;;;;27.60;19.65;;;19.90;99.90;;;;;;5030249;28;20319;-92
2021/08/16 05:12:50;;;;;;;25.77;18.60;;;20.00;99.90;;;;;;5012149;28;20212;-93
2021/08/16 05:15:16;;;;;;;25.58;18.88;;;20.10;99.90;;;;;;5013454;28;20664;-92
2021/08/16 05:17:42;;;;;;;23.70;16.33;;;20.30;99.90;;;;;;4999660;28;20291;-92
2021/08/16 05:20:09;;;;;;;25.85;18.60;;;20.30;99.90;;;;;;5015648;28;20288;-94
2021/08/16 05:22:42;;;;;;;26.52;16.85;;;20.50;99.90;;;;;;5016703;28;20297;-93
2021/08/16 05:25:09;;;;;;;20.73;15.77;;;20.70;99.90;;;;;;5016050;28;20184;-94
2021/08/16 05:27:35;;;;;;;20.77;16.67;;;20.80;99.90;;;;;;5014385;28;20346;-94
2021/08/16 05:30:01;;;;;;;24.88;15.95;;;20.90;99.90;;;;;;5018713;28;20712;-95
2021/08/16 05:32:27;;;;;;;25.13;16.80;;;20.90;99.90;;;;;;5033115;28;20223;-94
2021/08/16 05:34:53;;;;;;;21.25;16.23;;;21.10;99.90;;;;;;5026602;28;20225;-94
2021/08/16 05:37:19;;;;;;;20.40;15.02;;;21.10;99.90;;;;;;5018710;28;20256;-94
2021/08/16 05:39:45;;;;;;;17.92;14.60;;;;;;;;;;5040561;28;20208;-95
2021/08/16 05:42:13;;;;;;;18.30;15.45;;;21.20;99.90;;;;;;5021267;28;20211;-94
2021/08/16 05:44:38;;;;;;;20.30;14.30;;;21.20;99.90;;;;;;5002798;28;20192;-93
2021/08/16 05:47:05;;;;;;;20.90;14.48;;;21.20;99.90;;;;;;5015266;28;20288;-94
2021/08/16 05:49:31;;;;;;;19.98;15.05;;;21.30;99.90;;;;;;5034830;28;20193;-95
2021/08/16 05:51:57;;;;;;;23.45;14.10;;;21.30;99.90;;;;;;5028999;28;20185;-95
2021/08/16 05:54:23;;;;;;;30.40;17.90;;;21.30;99.90;;;;;;5009319;28;20189;-94
2021/08/16 05:56:48;;;;;;;17.80;14.90;;;21.40;99.90;;;;;;5018640;28;20216;-92
2021/08/16 05:59:14;;;;;;;17.30;13.02;;;21.40;99.90;;;;;;5002636;28;20183;-92
2021/08/16 06:01:40;;;;;;;24.55;12.57;;;21.40;99.90;;;;;;5018220;28;20197;-95
2021/08/16 06:04:07;;;;;;;18.50;13.80;;;21.40;99.90;;;;;;5016905;28;20185;-95
2021/08/16 06:06:33;;;;;;;22.55;11.65;;;;;;;;;;4998384;28;20272;-95
2021/08/16 06:08:59;;;;;;;17.55;11.93;;;21.40;99.90;;;;;;5015288;28;20186;-95
2021/08/16 06:11:26;;;;;;;16.17;12.13;;;;;;;;;;4996845;28;20245;-95
2021/08/16 06:13:52;;;;;;;19.20;12.48;;;21.40;99.90;;;;;;5023528;28;20178;-94
2021/08/16 06:16:18;;;;;;;21.95;12.38;;;21.40;99.90;;;;;;5015065;28;20260;-95
2021/08/16 06:18:44;;;;;;;19.40;11.70;;;21.60;99.90;;;;;;5014443;28;20820;-95
2021/08/16 06:21:10;;;;;;;20.33;12.68;;;21.60;99.90;;;;;;5014864;28;20217;-95
2021/08/16 06:23:36;;;;;;;20.52;11.93;;;21.70;99.90;;;;;;5014580;28;20260;-95
2021/08/16 06:26:03;;;;;;;21.65;12.15;;;21.80;99.90;;;;;;5016350;28;20181;-96
2021/08/16 06:28:29;;;;;;;15.80;12.15;;;21.80;99.90;;;;;;4998689;28;20181;-93
2021/08/16 06:30:55;;;;;;;20.63;12.95;;;21.80;99.90;;;;;;4998542;28;20273;-92
2021/08/16 06:33:20;;;;;;;18.17;11.68;;;22.00;99.90;;;;;;5033401;28;20234;-92
2021/08/16 06:35:47;;;;;;;18.67;11.13;;;22.00;99.90;;;;;;5000656;28;20177;-91
2021/08/16 06:38:21;;;;;;;16.30;10.40;;;22.10;99.90;;;;;;5017330;28;20177;-93
2021/08/16 06:40:48;;;;;;;17.75;11.32;;;22.30;99.90;;;;;;5002136;28;20183;-91
2021/08/16 06:43:14;;;;;;;13.02;10.90;;;22.50;99.90;;;;;;5016852;28;20179;-91
2021/08/16 06:45:40;;;;;;;13.98;10.13;;;22.60;99.90;;;;;;5016724;28;20263;-91
2021/08/16 06:48:06;;;;;;;13.30;9.93;;;22.80;99.90;;;;;;5013081;28;20204;-94
2021/08/16 06:50:32;;;;;;;17.27;10.45;;;22.90;99.90;;;;;;5013683;28;20189;-93
2021/08/16 06:52:57;;;;;;;12.77;10.32;;;23.10;99.90;;;;;;5013475;28;20203;-94
2021/08/16 06:55:23;;;;;;;16.52;11.85;;;23.10;99.90;;;;;;5014810;28;20223;-93
2021/08/16 06:57:49;;;;;;;13.73;9.68;;;23.40;99.90;;;;;;5013917;28;20185;-93
2021/08/16 07:00:15;;;;;;;15.43;10.30;;;23.50;99.90;;;;;;5016062;28;20204;-94
2021/08/16 07:02:41;;;;;;;23.08;11.15;;;23.50;99.90;;;;;;4996933;28;20205;-94
2021/08/16 07:05:08;;;;;;;14.93;10.18;;;23.60;99.90;;;;;;5018114;28;20592;-94
2021/08/16 07:07:34;;;;;;;21.15;10.48;;;23.70;99.90;;;;;;5026558;28;20216;-95
2021/08/16 07:10:00;;;;;;;18.08;10.75;;;24.00;99.90;;;;;;5029657;28;20225;-93
2021/08/16 07:12:25;;;;;;;14.98;10.98;;;24.10;99.90;;;;;;5029883;28;20193;-92
2021/08/16 07:14:51;;;;;;;20.00;10.60;;;;;;;;;;5013445;28;20590;-92
2021/08/16 07:17:17;;;;;;;15.18;11.00;;;;;;;;;;5028903;28;20184;-95
2021/08/16 07:19:43;;;;;;;16.58;10.15;;;24.30;99.90;;;;;;5030945;28;20184;-94
2021/08/16 07:22:10;;;;;;;15.05;11.00;;;24.40;99.90;;;;;;5010416;28;20242;-94
2021/08/16 07:24:38;;;;;;;14.80;10.18;;;24.50;99.90;;;;;;5037070;28;20225;-93
2021/08/16 07:27:04;;;;;;;15.63;9.75;;;23.10;99.90;;;;;;5017380;28;20176;-94
2021/08/16 07:29:30;;;;;;;18.88;10.77;;;24.60;99.90;;;;;;5017320;28;20338;-94
2021/08/16 07:31:57;;;;;;;13.07;10.38;;;25.00;99.90;;;;;;5022678;28;20183;-93
2021/08/16 07:34:24;;;;;;;13.60;10.38;;;25.00;99.90;;;;;;5027341;28;20200;-93
2021/08/16 07:36:50;;;;;;;21.35;10.20;;;24.60;99.90;;;;;;5049870;28;20227;-94
2021/08/16 07:39:16;;;;;;;12.15;10.55;;;24.60;99.90;;;;;;5030537;28;20252;-92
2021/08/16 07:41:42;;;;;;;23.90;11.57;;;24.70;99.90;;;;;;5029000;28;20274;-94
2021/08/16 07:44:08;;;;;;;24.15;11.75;;;;;;;;;;5027925;28;20184;-93
2021/08/16 07:46:34;;;;;;;14.35;10.75;;;24.80;99.90;;;;;;5020665;28;20187;-95
2021/08/16 07:49:00;;;;;;;17.45;10.73;;;25.00;99.90;;;;;;5016749;28;20172;-94
2021/08/16 07:51:26;;;;;;;17.83;10.63;;;;;;;;;;5016704;28;20224;-93
2021/08/16 07:53:52;;;;;;;17.98;11.95;;;;;;;;;;5016881;28;20206;-93
2021/08/16 07:56:18;;;;;;;16.20;11.13;;;;;;;;;;5016662;28;20176;-94
2021/08/16 07:58:44;;;;;;;16.33;10.38;;;;;;;;;;5017077;28;20271;-93
2021/08/16 08:01:10;;;;;;;17.90;11.30;;;;;;;;;;5016309;28;20212;-92
2021/08/16 08:03:36;;;;;;;19.77;10.23;;;;;;;;;;5017536;28;20573;-94
2021/08/16 08:06:03;;;;;;;13.02;10.93;;;;;;;;;;5016241;28;20176;-92
2021/08/16 08:08:29;;;;;;;15.48;10.32;;;;;;;;;;5016317;28;20652;-93
2021/08/16 08:10:55;;;;;;;14.63;10.30;;;24.80;99.90;;;;;;5034342;28;20731;-95
2021/08/16 08:13:20;;;;;;;13.05;11.15;;;24.90;99.90;;;;;;5017007;28;20172;-94
2021/08/16 08:15:49;;;;;;;14.27;11.13;;;24.80;99.90;;;;;;5027278;28;20195;-94
2021/08/16 08:18:15;;;;;;;14.80;10.98;;;;;;;;;;5014195;28;20188;-94
2021/08/16 08:20:41;;;;;;;16.50;10.80;;;24.70;99.90;;;;;;5036760;28;20238;-92
2021/08/16 08:23:08;;;;;;;13.50;11.35;;;;;;;;;;5036931;28;20216;-93
2021/08/16 08:25:34;;;;;;;14.88;11.15;;;;;;;;;;5020981;28;20204;-94
2021/08/16 08:28:01;;;;;;;16.75;11.05;;;;;;;;;;5019376;28;20177;-94
2021/08/16 08:30:27;;;;;;;15.40;10.80;;;24.60;99.90;;;;;;5034898;28;20179;-93
2021/08/16 08:32:55;;;;;;;15.40;11.50;;;24.60;99.90;;;;;;5016337;28;20275;-94
2021/08/16 08:35:23;;;;;;;15.00;11.20;;;24.60;99.90;;;;;;5019051;28;20177;-93
2021/08/16 08:37:49;;;;;;;15.80;11.25;;;;;;;;;;5020821;28;20183;-94
2021/08/16 08:40:15;;;;;;;14.55;10.45;;;24.60;99.90;;;;;;5020408;28;20238;-94
2021/08/16 08:42:47;;;;;;;17.70;10.93;;;24.50;99.90;;;;;;5020756;28;20278;-95
2021/08/16 08:45:14;;;;;;;17.33;12.20;;;24.40;99.90;;;;;;5037889;28;20176;-93
2021/08/16 08:47:40;;;;;;;14.68;11.35;;;24.20;99.90;;;;;;5019571;28;20562;-94
2021/08/16 08:50:07;;;;;;;19.17;12.00;;;24.10;99.90;;;;;;5018488;28;20177;-94
2021/08/16 08:52:33;;;;;;;14.48;11.48;;;24.00;99.90;;;;;;5019643;28;20189;-94
2021/08/16 08:54:59;;;;;;;16.63;12.30;;;;;;;;;;5038156;28;20177;-94
2021/08/16 08:57:28;;;;;;;16.63;11.65;;;;;;;;;;5037153;28;21091;-93
2021/08/16 08:59:54;;;;;;;18.17;12.30;;;;;;;;;;5016818;28;20684;-92
2021/08/16 09:02:21;;;;;;;15.07;11.73;;;23.80;99.90;;;;;;5029043;28;20200;-94
2021/08/16 09:04:54;;;;;;;14.90;11.30;;;23.90;99.90;;;;;;5024979;28;20178;-92
2021/08/16 09:07:31;;;;;;;17.85;12.75;;;24.00;99.90;;;;;;5017266;28;20212;-93
2021/08/16 09:09:57;;;;;;;20.25;12.35;;;23.70;99.90;;;;;;5015595;28;20251;-94
2021/08/16 09:12:30;;;;;;;22.63;12.48;;;22.10;99.90;;;;;;5001616;28;20646;-94
2021/08/16 09:14:57;;;;;;;22.35;11.95;;;;;;;;;;5016150;28;20177;-94
2021/08/16 09:17:31;;;;;;;18.65;11.95;;;23.70;99.90;;;;;;5016913;28;20169;-94
2021/08/16 09:19:57;;;;;;;24.20;12.32;;;;;;;;;;5017746;28;20177;-93
2021/08/16 09:22:31;;;;;;;20.48;13.15;;;23.60;99.90;;;;;;5017667;28;20216;-93
2021/08/16 09:25:08;;;;;;;26.02;12.95;;;23.60;99.90;;;;;;5017114;28;20223;-93
2021/08/16 09:27:44;;;;;;;22.15;14.20;;;23.70;99.90;;;;;;5017599;28;20173;-95
2021/08/16 09:30:10;;;;;;;16.75;12.93;;;23.50;99.90;;;;;;5017336;28;20177;-92
2021/08/16 09:32:36;;;;;;;18.00;13.77;;;23.60;99.90;;;;;;5000318;28;20223;-93
2021/08/16 09:35:06;;;;;;;20.13;13.65;;;23.60;99.90;;;;;;5017356;28;20268;-93
2021/08/16 09:37:33;;;;;;;19.88;13.20;;;23.70;99.90;;;;;;5015539;28;20664;-92
2021/08/16 09:40:17;;;;;;;16.42;12.82;;;23.70;99.90;;;;;;5017887;28;20235;-93
2021/08/16 09:42:47;;;;;;;16.75;13.40;;;23.80;99.90;;;;;;5016116;28;20197;-95
2021/08/16 09:45:25;;;;;;;16.88;12.35;;;23.70;99.90;;;;;;5015419;28;20188;-92
2021/08/16 09:47:56;;;;;;;14.77;12.13;;;23.60;99.90;;;;;;5015774;28;20185;-91
2021/08/16 09:50:25;;;;;;;25.20;13.30;;;23.50;99.90;;;;;;5016253;28;20272;-94
2021/08/16 09:52:50;;;;;;;18.60;13.25;;;23.50;99.90;;;;;;5018728;28;20179;-94
2021/08/16 09:55:17;;;;;;;18.92;12.57;;;23.60;99.90;;;;;;5001543;28;20271;-95
2021/08/16 09:57:45;;;;;;;17.60;13.50;;;23.50;99.90;;;;;;5019516;28;20176;-94
2021/08/16 10:00:11;;;;;;;17.88;13.75;;;23.40;99.90;;;;;;5019808;28;20180;-92
2021/08/16 10:02:37;;;;;;;16.98;12.93;;;23.40;99.90;;;;;;5003126;28;20691;-93
2021/08/16 10:05:03;;;;;;;21.23;13.48;;;23.50;99.90;;;;;;5021262;28;20184;-93
2021/08/16 10:07:31;;;;;;;18.63;13.40;;;23.50;99.90;;;;;;5019661;28;20302;-93
2021/08/16 10:10:01;;;;;;;20.10;12.93;;;23.60;99.90;;;;;;5015930;28;20224;-92
2021/08/16 10:12:31;;;;;;;17.25;13.00;;;23.60;99.90;;;;;;5016883;28;20256;-95
2021/08/16 10:14:58;;;;;;;21.63;14.00;;;23.60;99.90;;;;;;5016837;28;20193;-94
2021/08/16 10:17:35;;;;;;;17.90;13.52;;;23.70;99.90;;;;;;5002061;28;20173;-93
2021/08/16 10:20:02;;;;;;;20.75;13.70;;;23.80;99.90;;;;;;5018320;28;20188;-94
2021/08/16 10:22:37;;;;;;;17.90;13.05;;;23.70;99.90;;;;;;5017962;28;20208;-94
2021/08/16 10:25:10;;;;;;;18.77;12.70;;;23.80;99.90;;;;;;5018141;28;20557;-93
2021/08/16 10:27:35;;;;;;;15.43;13.13;;;23.80;99.90;;;;;;5036666;28;20181;-94
2021/08/16 10:30:06;;;;;;;19.50;13.77;;;23.70;99.90;;;;;;5035805;28;20195;-94
2021/08/16 10:32:32;;;;;;;24.98;14.25;;;23.70;99.90;;;;;;5035535;28;20204;-92
2021/08/16 10:35:08;;;;;;;16.90;13.93;;;23.60;99.90;;;;;;5019613;28;20626;-92
2021/08/16 10:37:39;;;;;;;18.42;13.73;;;23.60;99.90;;;;;;5005749;28;20180;-93
2021/08/16 10:40:25;;;;;;;20.65;14.35;;;23.60;99.90;;;;;;5041297;28;20524;-94
2021/08/16 10:42:55;;;;;;;19.85;13.60;;;23.60;99.90;;;;;;5003381;28;20295;-92
2021/08/16 10:45:45;;;;;;;18.63;13.57;;;23.70;99.90;;;;;;5018834;28;20629;-93
2021/08/16 10:48:19;;;;;;;21.15;13.93;;;23.70;99.90;;;;;;5023787;28;20188;-92
2021/08/16 10:50:45;;;;;;;17.45;14.02;;;23.80;99.90;;;;;;5015508;28;20638;-94
2021/08/16 10:53:11;;;;;;;18.25;13.60;;;23.80;99.90;;;;;;5014389;28;20192;-92
2021/08/16 10:55:39;;;;;;;22.90;14.05;;;23.90;99.90;;;;;;5018113;28;20186;-95
2021/08/16 10:58:09;;;;;;;21.77;14.00;;;24.00;99.90;;;;;;5019757;28;20253;-93
2021/08/16 11:00:45;;;;;;;28.67;13.70;;;24.10;99.90;;;;;;5006255;28;20216;-96
2021/08/16 11:03:11;;;;;;;18.13;12.82;;;24.20;99.90;;;;;;5027148;28;20203;-93
2021/08/16 11:05:39;;;;;;;22.58;14.15;;;24.40;99.90;;;;;;5008248;28;20643;-94
2021/08/16 11:08:07;;;;;;;18.42;12.82;;;24.50;99.90;;;;;;5007699;28;20177;-91
2021/08/16 11:10:44;;;;;;;18.05;12.90;;;24.60;99.90;;;;;;5011485;28;20232;-95
2021/08/16 11:13:18;;;;;;;21.33;12.60;;;24.70;99.90;;;;;;5012765;28;20253;-95
2021/08/16 11:15:45;;;;;;;15.05;12.02;;;24.90;99.90;;;;;;5013649;28;20630;-94
2021/08/16 11:18:19;;;;;;;20.15;12.30;;;25.00;99.90;;;;;;5010692;28;20181;-93
2021/08/16 11:20:55;;;;;;;16.00;12.55;;;25.20;99.90;;;;;;5028354;28;20204;-93
2021/08/16 11:23:21;;;;;;;19.13;12.57;;;25.30;99.90;;;;;;5035329;28;20211;-92
2021/08/16 11:25:52;;;;;;;17.38;12.02;;;25.70;99.90;;;;;;5019107;28;20196;-89
2021/08/16 11:28:28;;;;;;;15.90;12.30;;;26.30;99.90;;;;;;5009312;28;20242;-92
2021/08/16 11:31:07;;;;;;;17.33;10.95;;;26.80;99.90;;;;;;5022866;28;20176;-92
2021/08/16 11:33:34;;;;;;;20.90;10.95;;;27.10;99.90;;;;;;5003987;28;20168;-93
2021/08/16 11:36:09;;;;;;;14.45;10.55;;;27.50;99.90;;;;;;4996022;28;20189;-92
2021/08/16 11:38:36;;;;;;;16.73;9.98;;;27.70;99.90;;;;;;5005132;28;20227;-93
2021/08/16 11:41:03;;;;;;;15.20;10.00;;;27.80;99.90;;;;;;5004314;28;20199;-92
2021/08/16 11:43:29;;;;;;;14.98;10.57;;;27.70;99.90;;;;;;5001567;28;20196;-92
2021/08/16 11:45:55;;;;;;;14.48;10.23;;;27.80;99.90;;;;;;4988500;28;20185;-92
2021/08/16 11:48:24;;;;;;;18.35;9.95;;;27.90;99.90;;;;;;5009794;28;20473;-92
2021/08/16 11:50:57;;;;;;;14.73;10.35;;;28.00;99.90;;;;;;4990692;28;20542;-91
2021/08/16 11:53:23;;;;;;;11.90;10.18;;;;;;;;;;5003227;28;20181;-92
2021/08/16 11:55:48;;;;;;;15.80;10.38;;;28.30;99.90;;;;;;5004387;28;20182;-92
2021/08/16 11:58:14;;;;;;;11.98;9.45;;;28.50;99.90;;;;;;5007500;28;20701;-90
2021/08/16 12:00:41;;;;;;;16.38;9.23;;;28.60;99.90;;;;;;5009893;28;20211;-92
2021/08/16 12:03:08;;;;;;;15.90;10.15;;;28.70;99.90;;;;;;5009377;28;20208;-91
2021/08/16 12:05:33;;;;;;;13.77;9.55;;;28.90;99.90;;;;;;5004881;28;20227;-92
2021/08/16 12:07:59;;;;;;;14.48;9.57;;;28.90;99.90;;;;;;4996006;28;20185;-92
2021/08/16 12:10:27;;;;;;;12.27;9.82;;;29.10;99.90;;;;;;5027320;28;20221;-91
2021/08/16 12:13:00;;;;;;;15.23;7.85;;;29.30;99.90;;;;;;5024603;28;20547;-92
2021/08/16 12:15:26;;;;;;;15.02;8.10;;;29.30;99.90;;;;;;4990488;28;20180;-91
2021/08/16 12:18:04;;;;;;;11.20;8.10;;;29.40;99.90;;;;;;4993385;28;20227;-93
2021/08/16 12:20:42;;;;;;;12.32;8.30;;;29.60;99.90;;;;;;5036479;28;20180;-93
2021/08/16 12:23:08;;;;;;;13.70;7.75;;;29.70;99.90;;;;;;5028298;28;20204;-95
2021/08/16 12:25:48;;;;;;;11.40;8.48;;;29.80;99.90;;;;;;5007894;28;20272;-95
2021/08/16 12:28:14;;;;;;;11.55;8.13;;;29.80;99.90;;;;;;5004393;28;20188;-95
2021/08/16 12:30:40;;;;;;;8.25;6.88;;;30.00;99.90;;;;;;5030841;28;20189;-93
2021/08/16 12:33:11;;;;;;;10.18;7.68;;;30.30;99.90;;;;;;5025740;28;20266;-93
2021/08/16 12:35:38;;;;;;;11.68;6.95;;;30.20;99.90;;;;;;5027107;28;20228;-90
2021/08/16 12:38:05;;;;;;;11.20;6.50;;;30.00;99.90;;;;;;4993015;28;20673;-90
2021/08/16 12:40:32;;;;;;;14.48;7.63;;;29.90;99.90;;;;;;5008560;28;20185;-89
2021/08/16 12:43:01;;;;;;;11.10;6.78;;;29.80;99.90;;;;;;5006285;28;20247;-90
2021/08/16 12:45:27;;;;;;;14.00;7.03;;;29.50;99.90;;;;;;5009210;28;20177;-91